Time;durP1;ratioP1;P1;durP2;ratioP2;P2;SDS_P1;SDS_P2;PMS_P1;PMS_P2;Temp;Humidity;BMP_temperature;BMP_pressure;BME280_temperature;BME280_humidity;BME280_pressure;Samples;Min_cycle;Max_cycle;Signal;HPM_P1;HPM_P2
2021/12/20 00:02:14;;;;;;;19.88;12.85;;;102.80;2227.20;;;;;;4907892;29;20122;-79
2021/12/20 00:05:24;;;;;;;18.15;11.05;;;102.70;2227.20;;;;;;4913155;29;20055;-78
2021/12/20 00:11:46;;;;;;;20.77;12.98;;;102.60;2227.20;;;;;;4846517;29;20063;-79
2021/12/20 00:14:26;;;;;;;19.27;11.80;;;102.60;2227.20;;;;;;4846055;29;20073;-79
2021/12/20 00:17:12;;;;;;;20.33;13.88;;;102.50;2227.20;;;;;;4827063;29;20034;-79
2021/12/20 00:20:04;;;;;;;18.27;13.18;;;102.50;2227.20;;;;;;4843327;29;20062;-79
2021/12/20 00:23:00;;;;;;;19.17;12.00;;;102.50;2227.20;;;;;;4788492;30;20042;-80
2021/12/20 00:25:48;;;;;;;20.10;13.50;;;102.50;2227.20;;;;;;4747321;30;20039;-79
2021/12/20 00:28:54;;;;;;;16.92;11.90;;;102.40;2227.20;;;;;;4775559;29;20023;-79
2021/12/20 00:35:25;;;;;;;24.25;13.50;;;102.40;2227.20;;;;;;4757814;30;20081;-80
2021/12/20 00:41:31;;;;;;;19.02;12.45;;;102.40;2227.20;;;;;;4703378;30;20067;-79
2021/12/20 00:57:02;;;;;;;21.85;12.98;;;77.70;2227.20;;;;;;4956077;28;20024;-79
2021/12/20 00:59:34;;;;;;;18.08;12.50;;;77.70;2227.20;;;;;;4957806;29;20055;-79
2021/12/20 01:02:03;;;;;;;20.52;12.95;;;77.60;2227.20;;;;;;4952781;29;20052;-79
2021/12/20 01:04:37;;;;;;;28.17;14.18;;;77.60;2227.20;;;;;;4935659;29;20062;-79
2021/12/20 01:07:28;;;;;;;18.08;13.07;;;77.50;2227.20;;;;;;4952089;29;20031;-79
2021/12/20 01:10:06;;;;;;;21.87;14.77;;;77.50;2227.20;;;;;;4954113;29;20046;-80
2021/12/20 01:12:59;;;;;;;18.58;12.82;;;77.50;2227.20;;;;;;4937889;29;20266;-79
2021/12/20 01:15:35;;;;;;;21.83;13.05;;;77.50;2227.20;;;;;;4955832;29;20051;-78
2021/12/20 01:18:04;;;;;;;;;;;77.50;2227.20;;;;;;4956718;29;20028;-79
2021/12/20 01:21:19;;;;;;;26.92;15.70;;;77.50;2227.20;;;;;;4955597;28;19895;-79
2021/12/20 01:23:59;;;;;;;26.08;15.55;;;77.50;2227.20;;;;;;4943314;29;20036;-80
2021/12/20 01:26:55;;;;;;;21.88;13.38;;;77.50;2227.20;;;;;;4959575;28;20059;-80
2021/12/20 01:33:12;;;;;;;23.85;14.85;;;77.60;2227.20;;;;;;4883546;29;20112;-79
2021/12/20 01:35:39;;;;;;;25.58;14.82;;;77.70;2227.20;;;;;;4827114;29;20063;-78
2021/12/20 01:38:06;;;;;;;33.58;20.27;;;77.40;2227.20;;;;;;4869908;29;20057;-78
2021/12/20 01:41:11;;;;;;;27.08;14.60;;;77.70;2227.20;;;;;;4870344;29;20026;-79
2021/12/20 01:43:57;;;;;;;24.42;13.98;;;102.40;2227.20;;;;;;4858477;29;20034;-79
2021/12/20 01:46:25;;;;;;;23.33;13.55;;;102.40;2227.20;;;;;;4842796;29;20057;-79
2021/12/20 01:48:52;;;;;;;21.08;12.82;;;102.40;2227.20;;;;;;4843495;29;20045;-79
2021/12/20 01:51:44;;;;;;;25.42;16.25;;;102.40;2227.20;;;;;;4858794;29;20053;-79
2021/12/20 01:54:14;;;;;;;38.40;22.35;;;102.40;2227.20;;;;;;4839282;29;20045;-79
2021/12/20 01:57:03;;;;;;;28.52;19.05;;;102.40;2227.20;;;;;;4838257;29;20045;-79
2021/12/20 01:59:35;;;;;;;34.40;18.15;;;102.40;2227.20;;;;;;4810023;29;20050;-79
2021/12/20 02:02:15;;;;;;;32.05;18.95;;;77.60;2227.20;;;;;;4828026;29;20039;-79
2021/12/20 02:05:04;;;;;;;22.10;13.05;;;77.60;2227.20;;;;;;4801094;29;20035;-79
2021/12/20 02:11:18;;;;;;;31.27;17.27;;;77.50;2227.20;;;;;;4862570;29;20162;-80
2021/12/20 02:13:47;;;;;;;20.20;12.63;;;77.50;2227.20;;;;;;4859042;29;20130;-79
2021/12/20 02:16:26;;;;;;;19.40;12.15;;;77.40;2227.20;;;;;;4854009;29;20056;-79
2021/12/20 02:18:53;;;;;;;17.75;11.60;;;77.30;2227.20;;;;;;4841356;29;20057;-79
2021/12/20 02:21:19;;;;;;;22.20;11.73;;;77.40;2227.20;;;;;;4855301;29;20042;-79
2021/12/20 02:23:47;;;;;;;18.52;11.40;;;77.30;2227.20;;;;;;4853437;29;20123;-78
2021/12/20 02:26:16;;;;;;;17.25;9.75;;;77.30;2227.20;;;;;;4853968;29;20095;-79
2021/12/20 02:28:46;;;;;;;17.13;11.55;;;77.30;2227.20;;;;;;4855370;29;20053;-79
2021/12/20 02:39:10;;;;;;;16.27;9.50;;;77.40;2227.20;;;;;;4843155;29;20060;-78
2021/12/20 02:41:35;;;;;;;15.52;9.43;;;77.40;2227.20;;;;;;4844002;29;20046;-78
2021/12/20 02:44:06;;;;;;;14.25;8.85;;;77.30;2227.20;;;;;;4843888;29;20069;-78
2021/12/20 02:49:16;;;;;;;13.77;9.40;;;77.30;2227.20;;;;;;4923259;29;20046;-78
2021/12/20 02:51:43;;;;;;;16.05;10.95;;;77.30;2227.20;;;;;;4922546;29;20040;-78
2021/12/20 02:54:12;;;;;;;15.88;9.73;;;77.30;2227.20;;;;;;4922338;29;20040;-78
2021/12/20 02:56:39;;;;;;;13.95;8.77;;;77.30;2227.20;;;;;;4924813;29;20050;-78
2021/12/20 02:59:06;;;;;;;17.30;11.63;;;77.20;2227.20;;;;;;4906622;29;20054;-78
2021/12/20 03:02:04;;;;;;;17.98;9.68;;;77.20;2227.20;;;;;;4925091;29;20052;-80
2021/12/20 03:05:24;;;;;;;14.90;9.63;;;77.10;2227.20;;;;;;4873636;29;20085;-80
2021/12/20 03:11:51;;;;;;;17.50;9.15;;;77.10;2227.20;;;;;;4855708;29;20050;-79
2021/12/20 03:15:24;;;;;;;15.77;8.80;;;77.10;2227.20;;;;;;4830524;29;20080;-79
2021/12/20 03:18:41;;;;;;;16.80;10.55;;;77.10;2227.20;;;;;;4830659;29;20087;-80
2021/12/20 03:21:52;;;;;;;15.90;8.95;;;77.10;2227.20;;;;;;4806365;29;20109;-79
2021/12/20 03:24:42;;;;;;;15.13;8.95;;;77.10;2227.20;;;;;;4793819;30;20035;-79
2021/12/20 03:27:13;;;;;;;12.27;8.88;;;76.90;2227.20;;;;;;4794275;29;20036;-80
2021/12/20 03:29:43;;;;;;;13.43;8.32;;;77.10;2227.20;;;;;;4791112;30;20043;-79
2021/12/20 03:32:09;;;;;;;14.10;9.90;;;77.10;2227.20;;;;;;4777765;30;20046;-79
2021/12/20 03:34:35;;;;;;;14.57;9.63;;;77.10;2227.20;;;;;;4775839;30;20039;-78
2021/12/20 03:37:01;;;;;;;12.43;8.45;;;77.20;2227.20;;;;;;4776897;30;20043;-78
2021/12/20 03:39:26;;;;;;;11.35;7.65;;;77.10;2227.20;;;;;;4778169;29;20040;-78
2021/12/20 03:41:52;;;;;;;13.43;9.07;;;77.20;2227.20;;;;;;4787488;30;20044;-79
2021/12/20 03:44:18;;;;;;;14.75;8.82;;;77.20;2227.20;;;;;;4802428;29;20091;-78
2021/12/20 03:46:44;;;;;;;14.38;9.32;;;77.20;2227.20;;;;;;4835162;29;20101;-78
2021/12/20 03:49:09;;;;;;;15.43;7.47;;;77.20;2227.20;;;;;;4832317;29;20111;-78
2021/12/20 03:51:37;;;;;;;12.93;8.35;;;77.20;2227.20;;;;;;4861125;29;20041;-80
2021/12/20 03:54:13;;;;;;;15.38;8.82;;;77.20;2227.20;;;;;;4865867;29;20105;-79
2021/12/20 03:56:46;;;;;;;12.05;7.93;;;77.20;2227.20;;;;;;4858125;29;20045;-79
2021/12/20 03:59:14;;;;;;;12.93;8.35;;;77.20;2227.20;;;;;;4903254;29;20056;-79
2021/12/20 04:01:46;;;;;;;11.23;8.13;;;77.20;2227.20;;;;;;4928286;29;20040;-79
2021/12/20 04:04:12;;;;;;;15.35;9.25;;;77.20;2227.20;;;;;;4934361;29;20036;-80
2021/12/20 04:06:40;;;;;;;13.13;8.18;;;77.20;2227.20;;;;;;4935367;29;20506;-79
2021/12/20 04:09:07;;;;;;;12.77;7.03;;;77.30;2227.20;;;;;;4935655;29;20016;-79
2021/12/20 04:11:33;;;;;;;12.43;8.27;;;77.30;2227.20;;;;;;4934012;29;20032;-79
2021/12/20 04:14:01;;;;;;;15.85;8.73;;;77.30;2227.20;;;;;;4918129;29;20103;-79
2021/12/20 04:16:30;;;;;;;14.63;8.35;;;77.30;2227.20;;;;;;4934696;29;20129;-79
2021/12/20 04:18:59;;;;;;;12.57;8.07;;;77.30;2227.20;;;;;;4919762;29;20040;-79
2021/12/20 04:21:46;;;;;;;13.70;8.50;;;77.40;2227.20;;;;;;4920831;29;20047;-79
2021/12/20 04:24:19;;;;;;;15.00;8.75;;;77.40;2227.20;;;;;;4921863;29;20033;-79
2021/12/20 04:26:51;;;;;;;13.60;8.10;;;77.50;2227.20;;;;;;4914831;29;20060;-79
2021/12/20 04:29:18;;;;;;;14.50;8.52;;;77.50;2227.20;;;;;;4930722;29;20028;-79
2021/12/20 04:31:44;;;;;;;12.43;6.72;;;77.60;2227.20;;;;;;4933883;29;20043;-78
2021/12/20 04:34:11;;;;;;;10.43;7.70;;;77.60;2227.20;;;;;;4928510;29;20168;-79
2021/12/20 04:36:37;;;;;;;11.75;7.30;;;77.60;2227.20;;;;;;4934692;29;20461;-79
2021/12/20 04:39:11;;;;;;;12.65;7.00;;;77.60;2227.20;;;;;;4919070;29;20094;-79
2021/12/20 04:41:37;;;;;;;12.25;6.82;;;77.70;2227.20;;;;;;4904097;29;20044;-79
2021/12/20 04:52:24;;;;;;;9.57;5.97;;;102.40;2227.20;;;;;;5090220;23;20063;-79
2021/12/20 04:54:50;;;;;;;11.60;6.78;;;102.50;2227.20;;;;;;4932123;29;20036;-79
2021/12/20 04:57:17;;;;;;;8.88;5.75;;;102.50;2227.20;;;;;;4917588;29;20024;-79
2021/12/20 04:59:45;;;;;;;10.82;6.50;;;102.90;2227.20;;;;;;4928804;29;20120;-78
2021/12/20 05:02:16;;;;;;;11.38;6.55;;;102.50;2227.20;;;;;;4931200;29;20040;-79
2021/12/20 05:05:05;;;;;;;10.00;6.78;;;102.50;2227.20;;;;;;4930146;29;20043;-79
2021/12/20 05:07:44;;;;;;;12.65;6.70;;;102.50;2227.20;;;;;;4934129;29;20032;-79
2021/12/20 05:10:28;;;;;;;19.88;10.18;;;102.50;2227.20;;;;;;4930348;29;20044;-78
2021/12/20 05:12:59;;;;;;;22.80;12.75;;;102.50;2227.20;;;;;;4914489;29;20048;-79
2021/12/20 05:15:42;;;;;;;33.40;16.02;;;102.50;2227.20;;;;;;4913194;29;20037;-80
2021/12/20 05:18:11;;;;;;;32.78;17.52;;;102.50;2227.20;;;;;;4914210;29;20032;-79
2021/12/20 05:20:38;;;;;;;32.85;18.13;;;102.50;2227.20;;;;;;4922974;29;20078;-79
2021/12/20 05:23:07;;;;;;;41.72;19.40;;;102.50;2227.20;;;;;;4929049;29;20037;-79
2021/12/20 05:25:44;;;;;;;21.77;11.13;;;102.60;2227.20;;;;;;4931669;29;20036;-79
2021/12/20 05:28:15;;;;;;;18.95;11.57;;;102.60;2227.20;;;;;;4931516;29;20032;-79
2021/12/20 05:30:49;;;;;;;23.25;13.20;;;102.70;2227.20;;;;;;4920061;29;20040;-80
2021/12/20 05:33:21;;;;;;;24.00;14.60;;;102.70;2227.20;;;;;;4934841;29;20662;-80
2021/12/20 05:35:50;;;;;;;20.30;9.07;;;102.70;2227.20;;;;;;4934579;29;20088;-80
2021/12/20 05:38:18;;;;;;;21.05;13.38;;;102.70;2227.20;;;;;;4935023;29;20032;-79
2021/12/20 05:40:45;;;;;;;23.52;13.65;;;102.70;2227.20;;;;;;4934467;29;20060;-79
2021/12/20 05:43:17;;;;;;;28.55;15.25;;;102.70;2227.20;;;;;;4935452;29;20088;-79
2021/12/20 05:45:45;;;;;;;24.98;12.77;;;102.70;2227.20;;;;;;4934081;29;20032;-80
2021/12/20 05:48:15;;;;;;;11.95;8.13;;;102.60;2227.20;;;;;;4934011;29;20487;-79
2021/12/20 05:50:42;;;;;;;12.35;7.25;;;102.60;2227.20;;;;;;4932531;29;20051;-80
2021/12/20 05:53:11;;;;;;;15.40;7.85;;;102.70;2227.20;;;;;;4932949;29;20058;-79
2021/12/20 05:55:39;;;;;;;16.75;10.95;;;102.80;2227.20;;;;;;4934086;29;20053;-79
2021/12/20 05:58:08;;;;;;;13.80;9.10;;;102.80;2227.20;;;;;;4913931;29;20036;-79
2021/12/20 06:00:36;;;;;;;15.70;8.32;;;102.80;2227.20;;;;;;4929790;29;20044;-79
2021/12/20 06:03:04;;;;;;;22.27;12.07;;;102.80;2227.20;;;;;;4918576;29;20049;-80
2021/12/20 06:05:31;;;;;;;15.18;9.57;;;102.90;2227.20;;;;;;4924050;29;20060;-78
2021/12/20 06:08:23;;;;;;;11.93;7.88;;;102.90;2227.20;;;;;;4913227;29;20117;-79
2021/12/20 06:11:16;;;;;;;12.05;6.95;;;102.90;2227.20;;;;;;4938230;29;20031;-79
2021/12/20 06:22:37;;;;;;;10.88;7.25;;;102.90;2227.20;;;;;;4948405;29;20044;-79
2021/12/20 06:25:04;;;;;;;12.02;7.07;;;102.90;2227.20;;;;;;4936896;29;20038;-79
2021/12/20 06:27:30;;;;;;;15.93;9.27;;;102.60;2227.20;;;;;;4936585;29;20032;-79
2021/12/20 06:29:58;;;;;;;16.33;8.77;;;102.90;2227.20;;;;;;4936525;29;20103;-79
2021/12/20 06:32:25;;;;;;;16.10;9.63;;;102.90;2227.20;;;;;;4938492;29;20043;-78
2021/12/20 06:34:55;;;;;;;11.90;8.45;;;102.90;2227.20;;;;;;4955656;29;20031;-79
2021/12/20 06:37:27;;;;;;;12.38;8.27;;;103.00;2227.20;;;;;;4955539;29;20044;-79
2021/12/20 06:39:59;;;;;;;13.75;8.77;;;102.90;2227.20;;;;;;4936778;29;20032;-79
2021/12/20 06:42:26;;;;;;;14.93;8.55;;;103.00;2227.20;;;;;;4951336;29;20050;-79
2021/12/20 06:44:57;;;;;;;16.15;7.63;;;103.00;2227.20;;;;;;4932941;29;20040;-78
2021/12/20 06:47:34;;;;;;;14.48;8.93;;;103.00;2227.20;;;;;;4925520;29;20035;-79
2021/12/20 06:50:02;;;;;;;15.30;10.13;;;103.10;2227.20;;;;;;4958369;29;20075;-80
2021/12/20 06:52:32;;;;;;;14.38;8.93;;;102.90;2227.20;;;;;;4954290;29;20032;-79
2021/12/20 06:55:01;;;;;;;12.32;8.65;;;103.00;2227.20;;;;;;4957327;29;20032;-79
2021/12/20 06:57:28;;;;;;;16.83;11.50;;;103.00;2227.20;;;;;;4924473;29;20047;-79
2021/12/20 07:00:00;;;;;;;18.30;10.52;;;103.00;2227.20;;;;;;4956264;29;20036;-79
2021/12/20 07:02:50;;;;;;;17.08;11.35;;;103.10;2227.20;;;;;;4952927;29;20059;-80
2021/12/20 07:05:22;;;;;;;13.07;8.25;;;103.10;2227.20;;;;;;4950837;29;20031;-79
2021/12/20 07:08:13;;;;;;;12.95;8.40;;;103.20;2227.20;;;;;;4958238;29;20032;-79
2021/12/20 07:10:44;;;;;;;14.63;9.00;;;103.10;2227.20;;;;;;4919608;29;20047;-79
2021/12/20 07:13:21;;;;;;;17.85;10.32;;;103.10;2227.20;;;;;;4942037;29;20036;-78
2021/12/20 07:15:51;;;;;;;16.20;9.43;;;103.20;2227.20;;;;;;4931757;29;20042;-79
2021/12/20 07:18:17;;;;;;;19.05;9.88;;;103.20;2227.20;;;;;;4940159;29;20491;-79
2021/12/20 07:20:46;;;;;;;15.07;9.13;;;103.20;2227.20;;;;;;4955790;29;20051;-78
2021/12/20 07:23:16;;;;;;;16.00;9.65;;;103.20;2227.20;;;;;;4957070;29;20028;-80
2021/12/20 07:25:59;;;;;;;13.70;9.00;;;103.30;2227.20;;;;;;4907984;29;20035;-79
2021/12/20 07:28:28;;;;;;;16.50;9.60;;;103.30;2227.20;;;;;;4958125;29;20012;-80
2021/12/20 07:30:59;;;;;;;14.75;9.93;;;128.00;2252.80;;;;;;4950362;29;20023;-79
2021/12/20 07:33:32;;;;;;;16.50;9.93;;;128.00;2252.80;;;;;;4935164;29;20043;-79
2021/12/20 07:36:04;;;;;;;20.00;9.38;;;128.10;2252.80;;;;;;4941333;29;20047;-79
2021/12/20 07:38:37;;;;;;;15.25;9.57;;;128.10;2252.80;;;;;;4914091;29;20355;-79
2021/12/20 07:41:23;;;;;;;15.32;9.20;;;128.10;2252.80;;;;;;4952890;29;20067;-79
2021/12/20 07:44:01;;;;;;;20.83;11.38;;;128.10;2252.80;;;;;;4959025;29;20016;-79
2021/12/20 07:46:37;;;;;;;20.13;10.43;;;128.10;2252.80;;;;;;4955466;29;20031;-79
2021/12/20 07:49:19;;;;;;;22.73;12.73;;;128.10;2252.80;;;;;;4939491;29;20039;-79
2021/12/20 07:52:10;;;;;;;14.68;9.27;;;128.20;2252.80;;;;;;4960916;29;20020;-79
2021/12/20 07:54:45;;;;;;;17.15;11.80;;;128.30;2252.80;;;;;;4953300;29;20067;-80
2021/12/20 07:57:27;;;;;;;16.80;10.43;;;128.40;2252.80;;;;;;4961870;29;20052;-80
2021/12/20 08:00:10;;;;;;;18.30;9.15;;;128.60;2252.80;;;;;;4928640;29;20047;-79
2021/12/20 08:03:00;;;;;;;11.23;7.95;;;128.70;2252.80;;;;;;4930453;29;20040;-79
2021/12/20 08:06:13;;;;;;;16.52;8.85;;;128.70;2252.80;;;;;;4904323;29;20041;-80
2021/12/20 08:09:24;;;;;;;13.38;7.75;;;128.70;2252.80;;;;;;4757948;30;20051;-80
2021/12/20 08:11:55;;;;;;;12.25;8.48;;;128.70;2252.80;;;;;;4757607;30;20028;-79
2021/12/20 08:14:53;;;;;;;11.85;8.15;;;128.80;2252.80;;;;;;4758596;30;20021;-79
2021/12/20 11:45:59;;;;;;;8.50;4.22;;;256.20;2252.80;;;;;;4729011;26;20394;-88
2021/12/20 11:48:27;;;;;;;16.83;8.65;;;256.40;2252.80;;;;;;4920085;29;20036;-85
2021/12/20 11:50:57;;;;;;;12.10;7.35;;;256.40;2252.80;;;;;;4915868;29;20739;-85
2021/12/20 11:53:23;;;;;;;10.73;6.18;;;256.30;2252.80;;;;;;4937858;29;20514;-85
2021/12/20 11:55:51;;;;;;;11.70;4.97;;;256.40;2252.80;;;;;;4920216;29;20031;-85
2021/12/20 11:58:25;;;;;;;7.30;4.40;;;230.90;2252.80;;;;;;4937140;29;20050;-85
2021/12/20 12:01:03;;;;;;;11.10;5.80;;;231.10;2252.80;;;;;;4920435;29;20032;-84
2021/12/20 12:03:32;;;;;;;13.02;6.45;;;230.70;2252.80;;;;;;4920358;29;20709;-84
2021/12/20 12:06:06;;;;;;;11.32;5.60;;;231.10;2252.80;;;;;;4920975;29;20036;-84
2021/12/20 12:08:42;;;;;;;12.30;6.00;;;230.80;2252.80;;;;;;4920718;29;20119;-84
2021/12/20 12:11:08;;;;;;;6.80;4.13;;;205.60;2252.80;;;;;;4921096;29;20032;-84
2021/12/20 12:14:03;;;;;;;8.52;4.75;;;230.60;2252.80;;;;;;4920996;29;20095;-83
2021/12/20 12:17:03;;;;;;;9.15;5.78;;;205.50;2252.80;;;;;;4942752;29;20040;-82
2021/12/20 12:19:43;;;;;;;10.95;5.70;;;205.10;2252.80;;;;;;4924480;29;20046;-81
2021/12/20 12:22:40;;;;;;;9.65;4.65;;;205.30;2252.80;;;;;;4939578;29;20047;-81
2021/12/20 12:25:35;;;;;;;10.43;5.15;;;230.40;2252.80;;;;;;4920346;29;20080;-83
2021/12/20 12:28:01;;;;;;;10.65;5.65;;;230.70;2252.80;;;;;;4922909;29;20047;-82
2021/12/20 12:30:30;;;;;;;12.52;6.03;;;205.60;2252.80;;;;;;4938873;29;20032;-82
2021/12/20 12:32:56;;;;;;;8.32;5.45;;;205.30;2252.80;;;;;;4939607;29;20502;-82
2021/12/20 12:35:49;;;;;;;12.07;7.70;;;205.70;2252.80;;;;;;4923686;29;20032;-83
2021/12/20 12:38:37;;;;;;;17.35;6.78;;;205.70;2252.80;;;;;;4938076;29;20147;-82
2021/12/20 12:41:15;;;;;;;13.40;7.15;;;230.60;2252.80;;;;;;4935904;29;20048;-83
2021/12/20 12:44:06;;;;;;;14.57;6.03;;;231.00;2252.80;;;;;;4919967;29;20126;-83
2021/12/20 12:46:42;;;;;;;10.75;3.72;;;231.00;2252.80;;;;;;4835671;29;20123;-82
2021/12/20 12:49:22;;;;;;;18.30;5.63;;;205.70;2252.80;;;;;;4842151;29;20121;-82
2021/12/20 12:52:05;;;;;;;8.77;4.00;;;205.40;2252.80;;;;;;4844524;29;20508;-82
2021/12/20 12:54:38;;;;;;;9.93;4.40;;;204.90;2252.80;;;;;;4849128;29;20070;-83
2021/12/20 12:57:34;;;;;;;12.38;5.32;;;205.10;2252.80;;;;;;4848759;29;20065;-83
2021/12/20 13:00:13;;;;;;;11.30;6.57;;;205.00;2252.80;;;;;;4812663;29;20503;-82
2021/12/20 13:02:44;;;;;;;8.35;4.95;;;180.10;2252.80;;;;;;4816607;29;20068;-84
2021/12/20 13:05:17;;;;;;;12.00;5.90;;;180.00;2252.80;;;;;;4818994;29;20035;-81
2021/12/20 13:07:47;;;;;;;12.93;6.75;;;179.80;2252.80;;;;;;4806208;29;20034;-81
2021/12/20 13:10:15;;;;;;;14.30;7.18;;;180.10;2252.80;;;;;;4810315;29;20188;-81
2021/12/20 13:12:58;;;;;;;12.20;6.35;;;179.90;2252.80;;;;;;4810975;29;20030;-80
2021/12/20 13:15:52;;;;;;;7.35;4.97;;;179.70;2252.80;;;;;;4817732;29;20055;-81
2021/12/20 13:18:30;;;;;;;8.63;5.75;;;179.60;2252.80;;;;;;4814708;29;20039;-80
2021/12/20 13:23:29;;;;;;;12.88;6.25;;;179.80;2252.80;;;;;;4831636;29;20030;-80
2021/12/20 13:26:09;;;;;;;10.27;5.72;;;179.90;2252.80;;;;;;4867998;29;20068;-78
2021/12/20 13:28:39;;;;;;;11.40;6.47;;;179.90;2252.80;;;;;;4865945;29;20124;-78
2021/12/20 13:31:18;;;;;;;12.43;6.47;;;180.10;2252.80;;;;;;4864691;29;20080;-79
2021/12/20 13:34:05;;;;;;;9.45;5.63;;;205.10;2252.80;;;;;;4880466;29;20048;-82
2021/12/20 13:36:36;;;;;;;8.30;4.35;;;205.40;2252.80;;;;;;4884812;29;20048;-82
2021/12/20 13:39:24;;;;;;;8.10;4.10;;;205.30;2252.80;;;;;;4903829;29;20445;-82
2021/12/20 13:42:06;;;;;;;11.10;6.05;;;204.80;2252.80;;;;;;4908043;29;20040;-82
2021/12/20 13:44:32;;;;;;;13.68;6.00;;;180.00;2252.80;;;;;;4931859;29;20044;-81
2021/12/20 13:47:05;;;;;;;23.08;7.45;;;179.90;2252.80;;;;;;4927694;29;20399;-80
2021/12/20 13:49:31;;;;;;;17.00;6.15;;;179.70;2252.80;;;;;;4914024;29;20067;-81
2021/12/20 13:52:10;;;;;;;12.30;5.78;;;179.70;2252.80;;;;;;4894744;29;20055;-82
2021/12/20 13:54:43;;;;;;;12.02;6.18;;;179.60;2252.80;;;;;;4917354;29;20106;-79
2021/12/20 13:57:21;;;;;;;17.60;5.13;;;179.60;2252.80;;;;;;4942179;29;20115;-80
2021/12/20 14:00:28;;;;;;;8.90;5.80;;;179.70;2252.80;;;;;;4925451;29;20527;-81
2021/12/20 14:02:56;;;;;;;8.65;4.47;;;179.80;2252.80;;;;;;4926445;29;20039;-80
2021/12/20 14:05:27;;;;;;;7.10;4.63;;;179.80;2252.80;;;;;;4930165;29;20122;-80
2021/12/20 14:07:59;;;;;;;15.60;6.13;;;179.80;2252.80;;;;;;4947905;29;20059;-80
2021/12/20 14:10:36;;;;;;;18.83;9.43;;;179.80;2252.80;;;;;;4925944;29;20031;-81
2021/12/20 14:13:12;;;;;;;14.93;7.25;;;179.90;2252.80;;;;;;4923438;29;20066;-81
2021/12/20 14:15:40;;;;;;;13.82;8.48;;;179.80;2252.80;;;;;;4922257;29;20036;-80
2021/12/20 14:18:30;;;;;;;8.95;5.25;;;179.80;2252.80;;;;;;4926709;29;20042;-80
2021/12/20 14:20:56;;;;;;;9.00;5.38;;;179.70;2252.80;;;;;;4925255;29;20040;-80
2021/12/20 14:23:40;;;;;;;10.77;4.60;;;179.70;2252.80;;;;;;4923930;29;20131;-79
2021/12/20 14:26:16;;;;;;;16.60;8.23;;;179.50;2252.80;;;;;;4928498;29;20024;-80
2021/12/20 14:28:43;;;;;;;;;;;179.40;2252.80;;;;;;4917808;29;20047;-79
2021/12/20 14:31:12;;;;;;;;;;;179.30;2252.80;;;;;;4921790;29;20634;-79
2021/12/20 14:33:50;;;;;;;10.13;7.00;;;179.20;2252.80;;;;;;4923863;29;20017;-79
2021/12/20 14:36:20;;;;;;;15.57;7.53;;;154.40;2252.80;;;;;;4932936;29;20055;-81
2021/12/20 14:39:00;;;;;;;10.27;6.75;;;154.20;2252.80;;;;;;4913900;29;20071;-79
2021/12/20 14:41:39;;;;;;;15.57;7.22;;;154.20;2252.80;;;;;;4929111;29;20036;-80
2021/12/20 14:44:16;;;;;;;18.85;8.88;;;154.10;2252.80;;;;;;4911202;29;20052;-79
2021/12/20 14:46:56;;;;;;;10.38;6.82;;;154.10;2252.80;;;;;;4929535;29;20427;-79
2021/12/20 14:49:36;;;;;;;12.02;6.00;;;154.00;2252.80;;;;;;4938106;29;20484;-79
2021/12/20 14:52:11;;;;;;;18.95;9.02;;;153.90;2252.80;;;;;;4918784;29;20118;-78
2021/12/20 14:54:55;;;;;;;11.05;6.93;;;153.80;2252.80;;;;;;4936824;29;20032;-80
2021/12/20 14:57:30;;;;;;;17.13;8.18;;;153.80;2252.80;;;;;;4923288;29;20038;-79
2021/12/20 14:59:57;;;;;;;14.38;9.27;;;153.80;2252.80;;;;;;4919595;29;20044;-78
2021/12/20 15:02:37;;;;;;;11.80;6.45;;;153.60;2252.80;;;;;;4941799;29;20047;-79
2021/12/20 15:05:04;;;;;;;12.98;7.93;;;153.70;2252.80;;;;;;4945153;29;20034;-79
2021/12/20 15:07:31;;;;;;;11.32;6.43;;;153.60;2252.80;;;;;;4944209;29;20495;-78
2021/12/20 15:09:57;;;;;;;12.73;6.50;;;128.90;2252.80;;;;;;4919509;29;20043;-78
2021/12/20 15:12:23;;;;;;;13.20;6.85;;;128.90;2252.80;;;;;;4927065;29;20039;-78
2021/12/20 15:14:49;;;;;;;16.88;7.10;;;128.80;2252.80;;;;;;4918621;29;20402;-78
2021/12/20 15:17:15;;;;;;;14.75;7.80;;;128.60;2252.80;;;;;;4932724;29;20047;-78
2021/12/20 15:19:41;;;;;;;20.35;9.43;;;128.60;2252.80;;;;;;4936854;29;20036;-78
2021/12/20 15:22:07;;;;;;;14.15;7.50;;;128.60;2252.80;;;;;;4936005;29;20070;-78
2021/12/20 15:24:36;;;;;;;14.75;7.78;;;128.50;2252.80;;;;;;4922667;29;20063;-78
2021/12/20 15:27:03;;;;;;;17.10;8.60;;;128.40;2252.80;;;;;;4929255;29;20059;-79
2021/12/20 15:29:30;;;;;;;23.73;10.13;;;128.20;2252.80;;;;;;4947985;29;20035;-79
2021/12/20 15:31:56;;;;;;;14.00;8.80;;;128.30;2252.80;;;;;;4930734;29;20035;-79
2021/12/20 15:34:22;;;;;;;18.17;8.13;;;128.30;2252.80;;;;;;4933627;29;20055;-79
2021/12/20 15:36:48;;;;;;;16.77;7.72;;;128.10;2252.80;;;;;;4930628;29;20044;-79
2021/12/20 15:39:14;;;;;;;13.75;6.65;;;128.20;2252.80;;;;;;4948904;29;20028;-79
2021/12/20 15:41:40;;;;;;;12.35;7.30;;;128.20;2252.80;;;;;;4932800;29;20032;-80
2021/12/20 15:44:06;;;;;;;15.18;8.02;;;128.20;2252.80;;;;;;4913159;29;20048;-79
2021/12/20 15:46:48;;;;;;;16.17;8.05;;;128.20;2252.80;;;;;;4949948;29;20028;-80
2021/12/20 15:49:14;;;;;;;23.67;10.77;;;128.20;2252.80;;;;;;4944354;29;20592;-79
2021/12/20 15:51:42;;;;;;;16.63;9.25;;;128.30;2252.80;;;;;;4935550;29;20036;-79
2021/12/20 15:54:12;;;;;;;18.63;9.55;;;128.30;2252.80;;;;;;4947653;29;20130;-79
2021/12/20 15:56:39;;;;;;;14.50;9.13;;;128.30;2252.80;;;;;;4951070;29;20035;-79
2021/12/20 15:59:05;;;;;;;19.83;10.05;;;128.30;2252.80;;;;;;4929589;29;20098;-79
2021/12/20 16:01:32;;;;;;;13.85;7.82;;;128.20;2252.80;;;;;;4946168;29;20063;-79
2021/12/20 16:04:02;;;;;;;12.48;7.82;;;128.20;2252.80;;;;;;4939340;29;20032;-77
2021/12/20 16:06:28;;;;;;;20.23;11.45;;;128.10;2252.80;;;;;;4940331;29;20042;-78
2021/12/20 16:08:53;;;;;;;21.60;12.52;;;128.00;2252.80;;;;;;4940542;29;20028;-78
2021/12/20 16:11:19;;;;;;;20.77;11.40;;;128.10;2252.80;;;;;;4944931;29;20099;-79
2021/12/20 16:13:45;;;;;;;17.27;10.15;;;128.00;2252.80;;;;;;4950552;29;20071;-80
2021/12/20 16:16:40;;;;;;;22.45;10.57;;;128.00;2252.80;;;;;;4953001;28;20020;-79
2021/12/20 16:19:45;;;;;;;17.45;9.43;;;128.00;2252.80;;;;;;4940453;29;20041;-79
2021/12/20 16:22:15;;;;;;;21.52;9.68;;;103.30;2227.20;;;;;;4919260;29;20096;-79
2021/12/20 16:25:03;;;;;;;14.98;10.57;;;103.30;2227.20;;;;;;4898153;29;20040;-79
2021/12/20 16:27:32;;;;;;;16.83;8.55;;;103.30;2227.20;;;;;;4859106;29;20041;-78
2021/12/20 16:30:10;;;;;;;15.93;8.60;;;103.20;2227.20;;;;;;4856968;29;20061;-78
2021/12/20 16:32:36;;;;;;;18.33;9.80;;;103.10;2227.20;;;;;;4863425;29;20112;-77
2021/12/20 16:35:04;;;;;;;14.68;8.05;;;103.10;2227.20;;;;;;4861393;29;20076;-78
2021/12/20 16:37:30;;;;;;;19.35;9.00;;;103.10;2227.20;;;;;;4864883;29;20171;-78
2021/12/20 16:39:56;;;;;;;15.90;9.90;;;103.10;2227.20;;;;;;4849498;29;20170;-79
2021/12/20 16:42:23;;;;;;;19.90;10.15;;;103.00;2227.20;;;;;;4847497;29;20523;-78
2021/12/20 16:44:51;;;;;;;18.27;9.80;;;103.00;2227.20;;;;;;4846846;29;20111;-79
2021/12/20 16:47:26;;;;;;;20.02;9.70;;;103.00;2227.20;;;;;;4863439;29;20042;-78
2021/12/20 16:49:55;;;;;;;18.73;9.50;;;102.90;2227.20;;;;;;4861139;29;20093;-78
2021/12/20 16:52:21;;;;;;;16.95;8.85;;;102.80;2227.20;;;;;;4845522;29;20134;-78
2021/12/20 16:54:48;;;;;;;18.88;9.85;;;102.70;2227.20;;;;;;4850923;29;20037;-78
2021/12/20 16:57:15;;;;;;;20.25;9.90;;;102.70;2227.20;;;;;;4842142;29;20093;-78
2021/12/20 16:59:41;;;;;;;19.52;9.10;;;102.60;2227.20;;;;;;4860809;29;20157;-78
2021/12/20 17:02:10;;;;;;;14.63;9.40;;;102.70;2227.20;;;;;;4844902;29;20453;-78
2021/12/20 17:04:40;;;;;;;17.02;8.40;;;102.60;2227.20;;;;;;4879811;29;20094;-78
2021/12/20 17:07:08;;;;;;;15.45;8.95;;;102.60;2227.20;;;;;;4917170;29;20451;-78
2021/12/20 17:09:33;;;;;;;21.40;13.85;;;102.50;2227.20;;;;;;4917869;29;20430;-78
2021/12/20 17:11:59;;;;;;;22.45;12.10;;;102.40;2227.20;;;;;;4896400;29;20115;-78
2021/12/20 17:14:25;;;;;;;30.52;12.85;;;102.50;2227.20;;;;;;4897502;29;20048;-78
2021/12/20 17:16:51;;;;;;;23.08;13.63;;;102.40;2227.20;;;;;;4936741;29;20554;-78
2021/12/20 17:19:16;;;;;;;17.52;10.18;;;77.70;2227.20;;;;;;4930937;29;20095;-78
2021/12/20 17:21:42;;;;;;;13.25;8.40;;;77.70;2227.20;;;;;;4930464;29;20036;-78